In Rescue
 
Open Full Screen Window  High Contrast Mode
March 29, 2020 6:58 PM CDT
Weather Information
Wind Direction
  ---
Wind Speed
  00 kt (0 mph)
Wind Gust
  00 kt (0 mph)
Altimeter
29.90 in
Visibility
10 SM
Temperature
04° C
39° F
Dewpoint
00° C
32° F
Humidity
75%
Sky Condition
Overcast @ 8,500 ft
VFR

METAR KDYT 292358Z AUTO 00000KT 10SM OVC085 04/00 A2990 RMK AO2

FAA Disclaimer: The data displayed is for advisory purposes only and is not to be used for flight planning or operations.